sensor_id;sensor_type;location;lat;lon;timestamp;pressure;altitude;pressure_sealevel;temperature;humidity
80184;BME280;69682;52.138;5.440;2024-02-14T00:01:48;101338.34;;;7.00;98.02
80184;BME280;69682;52.138;5.440;2024-02-14T00:04:15;101326.84;;;7.01;98.52
80184;BME280;69682;52.138;5.440;2024-02-14T00:06:42;101323.25;;;7.02;98.95
80184;BME280;69682;52.138;5.440;2024-02-14T00:09:09;101326.75;;;7.02;99.13
80184;BME280;69682;52.138;5.440;2024-02-14T00:11:36;101322.22;;;7.04;98.01
80184;BME280;69682;52.138;5.440;2024-02-14T00:14:03;101317.78;;;7.05;99.46
80184;BME280;69682;52.138;5.440;2024-02-14T00:16:41;101319.50;;;7.06;99.73
80184;BME280;69682;52.138;5.440;2024-02-14T00:22:46;101325.50;;;7.10;99.22
80184;BME280;69682;52.138;5.440;2024-02-14T00:25:13;101322.75;;;7.11;99.32
80184;BME280;69682;52.138;5.440;2024-02-14T00:27:45;101311.91;;;7.16;99.63
80184;BME280;69682;52.138;5.440;2024-02-14T00:30:12;101314.47;;;7.17;99.45
80184;BME280;69682;52.138;5.440;2024-02-14T00:32:39;101310.97;;;7.17;99.54
80184;BME280;69682;52.138;5.440;2024-02-14T00:35:06;101306.44;;;7.19;99.95
80184;BME280;69682;52.138;5.440;2024-02-14T00:37:34;101307.13;;;7.22;99.42
80184;BME280;69682;52.138;5.440;2024-02-14T00:40:01;101300.03;;;7.23;99.55
80184;BME280;69682;52.138;5.440;2024-02-14T00:42:28;101298.22;;;7.23;99.82
80184;BME280;69682;52.138;5.440;2024-02-14T00:45:03;101295.50;;;7.25;99.96
80184;BME280;69682;52.138;5.440;2024-02-14T00:47:29;101298.84;;;7.28;99.49
80184;BME280;69682;52.138;5.440;2024-02-14T00:49:58;101301.41;;;7.30;100.00
80184;BME280;69682;52.138;5.440;2024-02-14T00:52:26;101290.63;;;7.33;100.00
80184;BME280;69682;52.138;5.440;2024-02-14T00:54:52;101287.81;;;7.36;100.00
80184;BME280;69682;52.138;5.440;2024-02-14T00:57:19;101285.06;;;7.38;100.00
80184;BME280;69682;52.138;5.440;2024-02-14T00:59:45;101288.50;;;7.40;100.00
80184;BME280;69682;52.138;5.440;2024-02-14T01:02:12;101291.75;;;7.45;100.00
80184;BME280;69682;52.138;5.440;2024-02-14T01:04:39;101293.38;;;7.47;100.00
80184;BME280;69682;52.138;5.440;2024-02-14T01:07:06;101289.72;;;7.50;100.00
80184;BME280;69682;52.138;5.440;2024-02-14T01:09:32;101291.41;;;7.51;100.00
80184;BME280;69682;52.138;5.440;2024-02-14T01:11:59;101286.94;;;7.51;100.00
80184;BME280;69682;52.138;5.440;2024-02-14T01:14:25;101291.22;;;7.54;100.00
80184;BME280;69682;52.138;5.440;2024-02-14T01:16:52;101284.06;;;7.56;100.00
80184;BME280;69682;52.138;5.440;2024-02-14T01:19:21;101290.22;;;7.57;100.00
80184;BME280;69682;52.138;5.440;2024-02-14T01:21:50;101283.00;;;7.59;100.00
80184;BME280;69682;52.138;5.440;2024-02-14T01:24:19;101289.19;;;7.59;100.00
80184;BME280;69682;52.138;5.440;2024-02-14T01:26:46;101281.13;;;7.61;100.00
80184;BME280;69682;52.138;5.440;2024-02-14T01:29:12;101285.34;;;7.65;100.00
80184;BME280;69682;52.138;5.440;2024-02-14T01:31:39;101287.88;;;7.66;100.00
80184;BME280;69682;52.138;5.440;2024-02-14T01:34:06;101280.59;;;7.70;100.00
80184;BME280;69682;52.138;5.440;2024-02-14T01:36:33;101275.28;;;7.70;100.00
80184;BME280;69682;52.138;5.440;2024-02-14T01:38:59;101278.78;;;7.70;100.00
80184;BME280;69682;52.138;5.440;2024-02-14T01:41:26;101281.44;;;7.70;100.00
80184;BME280;69682;52.138;5.440;2024-02-14T01:43:53;101273.41;;;7.72;100.00
80184;BME280;69682;52.138;5.440;2024-02-14T01:46:19;101275.13;;;7.73;100.00
80184;BME280;69682;52.138;5.440;2024-02-14T01:48:46;101279.50;;;7.74;100.00
80184;BME280;69682;52.138;5.440;2024-02-14T01:51:14;101283.78;;;7.77;100.00
80184;BME280;69682;52.138;5.440;2024-02-14T01:53:50;101274.75;;;7.79;100.00
80184;BME280;69682;52.138;5.440;2024-02-14T01:56:17;101280.00;;;7.81;100.00
80184;BME280;69682;52.138;5.440;2024-02-14T01:58:44;101290.44;;;7.84;100.00
80184;BME280;69682;52.138;5.440;2024-02-14T02:01:11;101285.91;;;7.86;100.00
80184;BME280;69682;52.138;5.440;2024-02-14T02:03:38;101268.94;;;7.88;100.00
80184;BME280;69682;52.138;5.440;2024-02-14T02:06:19;101286.56;;;7.89;100.00
80184;BME280;69682;52.138;5.440;2024-02-14T02:08:46;101284.69;;;7.91;100.00
80184;BME280;69682;52.138;5.440;2024-02-14T02:11:14;101287.25;;;7.93;100.00
80184;BME280;69682;52.138;5.440;2024-02-14T02:13:41;101280.06;;;7.95;100.00
80184;BME280;69682;52.138;5.440;2024-02-14T02:16:07;101273.78;;;7.96;100.00
80184;BME280;69682;52.138;5.440;2024-02-14T02:18:34;101282.41;;;8.00;100.00
80184;BME280;69682;52.138;5.440;2024-02-14T02:21:01;101285.78;;;8.03;100.00
80184;BME280;69682;52.138;5.440;2024-02-14T02:23:30;101290.97;;;8.05;100.00
80184;BME280;69682;52.138;5.440;2024-02-14T02:26:03;101287.47;;;8.04;100.00
80184;BME280;69682;52.138;5.440;2024-02-14T02:28:30;101290.03;;;8.06;100.00
80184;BME280;69682;52.138;5.440;2024-02-14T02:30:57;101287.38;;;8.06;100.00
80184;BME280;69682;52.138;5.440;2024-02-14T02:33:24;101291.56;;;8.10;100.00
80184;BME280;69682;52.138;5.440;2024-02-14T02:35:51;101293.19;;;8.12;100.00
80184;BME280;69682;52.138;5.440;2024-02-14T02:38:18;101295.66;;;8.15;100.00
80184;BME280;69682;52.138;5.440;2024-02-14T02:40:46;101293.88;;;8.16;100.00
80184;BME280;69682;52.138;5.440;2024-02-14T02:43:13;101298.22;;;8.17;100.00
80184;BME280;69682;52.138;5.440;2024-02-14T02:45:39;101301.66;;;8.19;100.00
80184;BME280;69682;52.138;5.440;2024-02-14T02:48:06;101299.84;;;8.19;100.00
80184;BME280;69682;52.138;5.440;2024-02-14T02:50:33;101299.75;;;8.21;100.00
80184;BME280;69682;52.138;5.440;2024-02-14T02:53:00;101296.94;;;8.24;100.00
80184;BME280;69682;52.138;5.440;2024-02-14T02:55:27;101295.97;;;8.25;100.00
80184;BME280;69682;52.138;5.440;2024-02-14T02:57:56;101294.09;;;8.27;100.00
80184;BME280;69682;52.138;5.440;2024-02-14T03:00:22;101291.44;;;8.27;100.00
80184;BME280;69682;52.138;5.440;2024-02-14T03:02:52;101301.94;;;8.29;100.00
80184;BME280;69682;52.138;5.440;2024-02-14T03:05:18;101307.19;;;8.30;100.00
80184;BME280;69682;52.138;5.440;2024-02-14T03:07:46;101306.22;;;8.31;100.00
80184;BME280;69682;52.138;5.440;2024-02-14T03:10:15;101307.06;;;8.32;100.00
80184;BME280;69682;52.138;5.440;2024-02-14T03:12:47;101301.75;;;8.32;100.00
80184;BME280;69682;52.138;5.440;2024-02-14T03:15:14;101303.31;;;8.36;100.00
80184;BME280;69682;52.138;5.440;2024-02-14T03:17:41;101312.13;;;8.36;100.00
80184;BME280;69682;52.138;5.440;2024-02-14T03:20:09;101300.50;;;8.39;100.00
80184;BME280;69682;52.138;5.440;2024-02-14T03:22:44;101307.63;;;8.38;100.00
80184;BME280;69682;52.138;5.440;2024-02-14T03:25:19;101314.63;;;8.39;100.00
80184;BME280;69682;52.138;5.440;2024-02-14T03:27:47;101311.88;;;8.41;100.00
80184;BME280;69682;52.138;5.440;2024-02-14T03:30:17;101310.09;;;8.41;100.00
80184;BME280;69682;52.138;5.440;2024-02-14T03:32:48;101309.72;;;8.48;100.00
80184;BME280;69682;52.138;5.440;2024-02-14T03:35:16;101308.69;;;8.50;100.00
80184;BME280;69682;52.138;5.440;2024-02-14T03:37:45;101320.91;;;8.53;100.00
80184;BME280;69682;52.138;5.440;2024-02-14T03:40:15;101318.25;;;8.53;100.00
80184;BME280;69682;52.138;5.440;2024-02-14T03:42:42;101317.22;;;8.55;100.00
80184;BME280;69682;52.138;5.440;2024-02-14T03:45:09;101330.41;;;8.57;100.00
80184;BME280;69682;52.138;5.440;2024-02-14T03:47:36;101330.31;;;8.58;100.00
80184;BME280;69682;52.138;5.440;2024-02-14T03:50:10;101312.41;;;8.62;100.00
80184;BME280;69682;52.138;5.440;2024-02-14T03:52:38;101312.28;;;8.63;100.00
80184;BME280;69682;52.138;5.440;2024-02-14T03:55:05;101319.13;;;8.68;100.00
80184;BME280;69682;52.138;5.440;2024-02-14T03:57:33;101320.75;;;8.70;100.00
80184;BME280;69682;52.138;5.440;2024-02-14T04:00:04;101316.38;;;8.69;100.00
80184;BME280;69682;52.138;5.440;2024-02-14T04:02:34;101325.19;;;8.70;100.00
80184;BME280;69682;52.138;5.440;2024-02-14T04:05:05;101315.34;;;8.72;100.00
80184;BME280;69682;52.138;5.440;2024-02-14T04:07:33;101331.00;;;8.76;100.00
80184;BME280;69682;52.138;5.440;2024-02-14T04:10:00;101331.88;;;8.77;100.00
80184;BME280;69682;52.138;5.440;2024-02-14T04:12:27;101335.19;;;8.80;100.00
80184;BME280;69682;52.138;5.440;2024-02-14T04:14:53;101328.00;;;8.82;100.00
80184;BME280;69682;52.138;5.440;2024-02-14T04:17:20;101328.66;;;8.86;100.00
80184;BME280;69682;52.138;5.440;2024-02-14T04:19:47;101340.00;;;8.88;100.00
80184;BME280;69682;52.138;5.440;2024-02-14T04:22:13;101345.06;;;8.93;100.00
80184;BME280;69682;52.138;5.440;2024-02-14T04:24:40;101343.38;;;8.92;100.00
80184;BME280;69682;52.138;5.440;2024-02-14T04:27:06;101354.72;;;8.94;100.00
80184;BME280;69682;52.138;5.440;2024-02-14T04:29:33;101352.84;;;8.96;100.00
80184;BME280;69682;52.138;5.440;2024-02-14T04:32:02;101354.66;;;8.95;100.00
80184;BME280;69682;52.138;5.440;2024-02-14T04:34:29;101364.25;;;8.98;100.00
80184;BME280;69682;52.138;5.440;2024-02-14T04:36:57;101357.97;;;8.99;100.00
80184;BME280;69682;52.138;5.440;2024-02-14T04:39:24;101355.31;;;8.99;100.00
80184;BME280;69682;52.138;5.440;2024-02-14T04:41:51;101358.81;;;8.99;100.00
80184;BME280;69682;52.138;5.440;2024-02-14T04:44:28;101355.22;;;9.00;100.00
80184;BME280;69682;52.138;5.440;2024-02-14T04:46:55;101364.06;;;9.01;100.00
80184;BME280;69682;52.138;5.440;2024-02-14T04:49:23;101357.78;;;9.02;100.00
80184;BME280;69682;52.138;5.440;2024-02-14T04:52:02;101367.44;;;9.03;100.00
80184;BME280;69682;52.138;5.440;2024-02-14T04:54:29;101363.03;;;9.03;100.00
80184;BME280;69682;52.138;5.440;2024-02-14T04:56:58;101368.22;;;9.05;100.00
80184;BME280;69682;52.138;5.440;2024-02-14T04:59:28;101363.69;;;9.07;100.00
80184;BME280;69682;52.138;5.440;2024-02-14T05:01:55;101366.22;;;9.08;100.00
80184;BME280;69682;52.138;5.440;2024-02-14T05:04:23;101371.53;;;9.08;100.00
80184;BME280;69682;52.138;5.440;2024-02-14T05:06:49;101373.16;;;9.11;100.00
80184;BME280;69682;52.138;5.440;2024-02-14T05:09:20;101376.66;;;9.12;100.00
80184;BME280;69682;52.138;5.440;2024-02-14T05:11:46;101378.41;;;9.13;100.00
80184;BME280;69682;52.138;5.440;2024-02-14T05:14:13;101381.91;;;9.13;100.00
80184;BME280;69682;52.138;5.440;2024-02-14T05:16:39;101391.56;;;9.14;100.00
80184;BME280;69682;52.138;5.440;2024-02-14T05:19:06;101385.41;;;9.14;100.00
80184;BME280;69682;52.138;5.440;2024-02-14T05:21:33;101388.91;;;9.14;100.00
80184;BME280;69682;52.138;5.440;2024-02-14T05:24:00;101390.66;;;9.15;100.00
80184;BME280;69682;52.138;5.440;2024-02-14T05:26:27;101405.72;;;9.15;100.00
80184;BME280;69682;52.138;5.440;2024-02-14T05:28:53;101394.25;;;9.14;100.00
80184;BME280;69682;52.138;5.440;2024-02-14T05:31:20;101395.97;;;9.15;100.00
80184;BME280;69682;52.138;5.440;2024-02-14T05:33:46;101397.66;;;9.16;100.00
80184;BME280;69682;52.138;5.440;2024-02-14T05:36:13;101397.84;;;9.13;100.00
80184;BME280;69682;52.138;5.440;2024-02-14T05:38:40;101398.63;;;9.15;100.00
80184;BME280;69682;52.138;5.440;2024-02-14T05:41:06;101405.72;;;9.15;100.00
80184;BME280;69682;52.138;5.440;2024-02-14T05:43:34;101408.38;;;9.15;100.00
80184;BME280;69682;52.138;5.440;2024-02-14T05:46:01;101410.09;;;9.16;100.00
80184;BME280;69682;52.138;5.440;2024-02-14T05:48:27;101412.78;;;9.16;100.00
80184;BME280;69682;52.138;5.440;2024-02-14T05:50:54;101398.63;;;9.15;100.00
80184;BME280;69682;52.138;5.440;2024-02-14T05:53:21;101410.19;;;9.14;100.00
80184;BME280;69682;52.138;5.440;2024-02-14T05:55:47;101399.56;;;9.14;100.00
80184;BME280;69682;52.138;5.440;2024-02-14T05:58:14;101404.88;;;9.14;100.00
80184;BME280;69682;52.138;5.440;2024-02-14T06:00:41;101409.34;;;9.14;100.00
80184;BME280;69682;52.138;5.440;2024-02-14T06:03:08;101413.69;;;9.15;100.00
80184;BME280;69682;52.138;5.440;2024-02-14T06:05:35;101413.81;;;9.13;100.00
80184;BME280;69682;52.138;5.440;2024-02-14T06:08:01;101412.00;;;9.14;100.00
80184;BME280;69682;52.138;5.440;2024-02-14T06:10:30;101419.13;;;9.13;100.00
80184;BME280;69682;52.138;5.440;2024-02-14T06:12:56;101421.78;;;9.13;100.00
80184;BME280;69682;52.138;5.440;2024-02-14T06:15:23;101418.16;;;9.14;100.00
80184;BME280;69682;52.138;5.440;2024-02-14T06:17:50;101433.25;;;9.14;100.00
80184;BME280;69682;52.138;5.440;2024-02-14T06:20:17;101426.13;;;9.14;100.00
80184;BME280;69682;52.138;5.440;2024-02-14T06:22:43;101430.53;;;9.15;100.00
80184;BME280;69682;52.138;5.440;2024-02-14T06:25:22;101439.34;;;9.16;100.00
80184;BME280;69682;52.138;5.440;2024-02-14T06:27:49;101428.72;;;9.16;100.00
80184;BME280;69682;52.138;5.440;2024-02-14T06:30:15;101438.50;;;9.15;100.00
80184;BME280;69682;52.138;5.440;2024-02-14T06:32:44;101434.88;;;9.16;100.00
80184;BME280;69682;52.138;5.440;2024-02-14T06:35:10;101443.72;;;9.17;100.00
80184;BME280;69682;52.138;5.440;2024-02-14T06:37:38;101449.13;;;9.15;100.00
80184;BME280;69682;52.138;5.440;2024-02-14T06:40:18;101449.97;;;9.16;100.00
80184;BME280;69682;52.138;5.440;2024-02-14T06:42:44;101453.50;;;9.16;100.00
80184;BME280;69682;52.138;5.440;2024-02-14T06:45:11;101458.88;;;9.15;100.00
80184;BME280;69682;52.138;5.440;2024-02-14T06:47:38;101466.97;;;9.13;100.00
80184;BME280;69682;52.138;5.440;2024-02-14T06:50:05;101468.66;;;9.14;100.00
80184;BME280;69682;52.138;5.440;2024-02-14T06:52:34;101465.94;;;9.16;100.00
80184;BME280;69682;52.138;5.440;2024-02-14T06:55:01;101463.16;;;9.17;100.00
80184;BME280;69682;52.138;5.440;2024-02-14T06:57:30;101456.06;;;9.18;100.00
80184;BME280;69682;52.138;5.440;2024-02-14T06:59:56;101463.94;;;9.19;100.00
80184;BME280;69682;52.138;5.440;2024-02-14T07:02:23;101460.31;;;9.20;100.00
80184;BME280;69682;52.138;5.440;2024-02-14T07:04:54;101468.22;;;9.22;100.00
80184;BME280;69682;52.138;5.440;2024-02-14T07:07:21;101470.03;;;9.21;100.00
80184;BME280;69682;52.138;5.440;2024-02-14T07:09:48;101472.59;;;9.23;100.00
80184;BME280;69682;52.138;5.440;2024-02-14T07:12:15;101469.91;;;9.23;100.00
80184;BME280;69682;52.138;5.440;2024-02-14T07:14:41;101476.09;;;9.23;100.00
80184;BME280;69682;52.138;5.440;2024-02-14T07:17:08;101471.66;;;9.24;100.00
80184;BME280;69682;52.138;5.440;2024-02-14T07:19:34;101481.31;;;9.25;100.00
80184;BME280;69682;52.138;5.440;2024-02-14T07:22:01;101486.66;;;9.25;100.00
80184;BME280;69682;52.138;5.440;2024-02-14T07:24:28;101482.94;;;9.27;100.00
80184;BME280;69682;52.138;5.440;2024-02-14T07:26:54;101478.47;;;9.28;100.00
80184;BME280;69682;52.138;5.440;2024-02-14T07:29:21;101482.75;;;9.30;100.00
80184;BME280;69682;52.138;5.440;2024-02-14T07:31:48;101487.97;;;9.32;100.00
80184;BME280;69682;52.138;5.440;2024-02-14T07:34:14;101484.56;;;9.30;100.00
80184;BME280;69682;52.138;5.440;2024-02-14T07:36:41;101474.78;;;9.30;100.00
80184;BME280;69682;52.138;5.440;2024-02-14T07:39:12;101487.97;;;9.32;100.00
80184;BME280;69682;52.138;5.440;2024-02-14T07:41:39;101484.38;;;9.33;100.00
80184;BME280;69682;52.138;5.440;2024-02-14T07:44:06;101479.06;;;9.33;100.00
80184;BME280;69682;52.138;5.440;2024-02-14T07:46:33;101485.22;;;9.33;100.00
80184;BME280;69682;52.138;5.440;2024-02-14T07:48:59;101485.13;;;9.35;100.00
80184;BME280;69682;52.138;5.440;2024-02-14T07:51:27;101493.09;;;9.35;100.00
80184;BME280;69682;52.138;5.440;2024-02-14T07:53:55;101496.53;;;9.37;100.00
80184;BME280;69682;52.138;5.440;2024-02-14T07:56:22;101489.41;;;9.38;100.00
80184;BME280;69682;52.138;5.440;2024-02-14T07:58:49;101498.25;;;9.38;100.00
80184;BME280;69682;52.138;5.440;2024-02-14T08:01:16;101496.34;;;9.40;100.00
80184;BME280;69682;52.138;5.440;2024-02-14T08:03:45;101494.53;;;9.41;100.00
80184;BME280;69682;52.138;5.440;2024-02-14T08:06:16;101503.41;;;9.41;100.00
80184;BME280;69682;52.138;5.440;2024-02-14T08:08:43;101509.47;;;9.43;100.00
80184;BME280;69682;52.138;5.440;2024-02-14T08:11:10;101506.81;;;9.43;100.00
80184;BME280;69682;52.138;5.440;2024-02-14T08:13:37;101507.66;;;9.44;100.00
80184;BME280;69682;52.138;5.440;2024-02-14T08:16:06;101518.28;;;9.44;100.00
80184;BME280;69682;52.138;5.440;2024-02-14T08:18:33;101517.34;;;9.45;100.00
80184;BME280;69682;52.138;5.440;2024-02-14T08:21:00;101514.69;;;9.45;100.00
80184;BME280;69682;52.138;5.440;2024-02-14T08:23:26;101506.59;;;9.46;100.00
80184;BME280;69682;52.138;5.440;2024-02-14T08:25:53;101513.56;;;9.49;100.00
80184;BME280;69682;52.138;5.440;2024-02-14T08:28:19;101509.19;;;9.48;100.00
80184;BME280;69682;52.138;5.440;2024-02-14T08:30:47;101507.28;;;9.50;100.00
80184;BME280;69682;52.138;5.440;2024-02-14T08:33:14;101511.66;;;9.51;100.00
80184;BME280;69682;52.138;5.440;2024-02-14T08:35:41;101512.50;;;9.51;100.00
80184;BME280;69682;52.138;5.440;2024-02-14T08:38:09;101505.38;;;9.52;100.00
80184;BME280;69682;52.138;5.440;2024-02-14T08:40:36;101507.97;;;9.53;100.00
80184;BME280;69682;52.138;5.440;2024-02-14T08:43:03;101522.88;;;9.56;100.00
80184;BME280;69682;52.138;5.440;2024-02-14T08:45:31;101517.56;;;9.56;100.00
80184;BME280;69682;52.138;5.440;2024-02-14T08:47:59;101521.06;;;9.57;100.00
80184;BME280;69682;52.138;5.440;2024-02-14T08:50:26;101528.94;;;9.58;100.00
80184;BME280;69682;52.138;5.440;2024-02-14T08:52:52;101528.94;;;9.58;100.00
80184;BME280;69682;52.138;5.440;2024-02-14T08:55:19;101524.41;;;9.60;100.00
80184;BME280;69682;52.138;5.440;2024-02-14T08:57:46;101526.09;;;9.61;100.00
80184;BME280;69682;52.138;5.440;2024-02-14T09:00:15;101527.84;;;9.62;100.00
80184;BME280;69682;52.138;5.440;2024-02-14T09:02:47;101524.22;;;9.63;100.00
80184;BME280;69682;52.138;5.440;2024-02-14T09:05:14;101524.13;;;9.65;100.00
80184;BME280;69682;52.138;5.440;2024-02-14T09:07:40;101527.63;;;9.65;100.00
80184;BME280;69682;52.138;5.440;2024-02-14T09:10:08;101525.06;;;9.64;100.00
80184;BME280;69682;52.138;5.440;2024-02-14T09:12:36;101532.00;;;9.66;100.00
80184;BME280;69682;52.138;5.440;2024-02-14T09:15:05;101532.97;;;9.65;100.00
80184;BME280;69682;52.138;5.440;2024-02-14T09:17:32;101534.78;;;9.65;100.00
80184;BME280;69682;52.138;5.440;2024-02-14T09:19:59;101536.56;;;9.64;100.00
80184;BME280;69682;52.138;5.440;2024-02-14T09:22:26;101546.25;;;9.65;100.00
80184;BME280;69682;52.138;5.440;2024-02-14T09:24:53;101540.09;;;9.65;100.00
80184;BME280;69682;52.138;5.440;2024-02-14T09:27:19;101544.44;;;9.66;100.00
80184;BME280;69682;52.138;5.440;2024-02-14T09:29:46;101546.25;;;9.65;100.00
80184;BME280;69682;52.138;5.440;2024-02-14T09:32:13;101561.28;;;9.66;100.00
80184;BME280;69682;52.138;5.440;2024-02-14T09:34:40;101555.88;;;9.68;100.00
80184;BME280;69682;52.138;5.440;2024-02-14T09:37:07;101555.00;;;9.67;100.00
80184;BME280;69682;52.138;5.440;2024-02-14T09:39:33;101561.19;;;9.68;100.00
80184;BME280;69682;52.138;5.440;2024-02-14T09:42:12;101548.75;;;9.68;100.00
80184;BME280;69682;52.138;5.440;2024-02-14T09:44:40;101550.44;;;9.69;100.00
80184;BME280;69682;52.138;5.440;2024-02-14T09:47:09;101549.47;;;9.70;100.00
80184;BME280;69682;52.138;5.440;2024-02-14T09:49:35;101547.69;;;9.71;100.00
80184;BME280;69682;52.138;5.440;2024-02-14T09:52:06;101543.22;;;9.71;100.00
80184;BME280;69682;52.138;5.440;2024-02-14T09:54:34;101551.22;;;9.71;100.00
80184;BME280;69682;52.138;5.440;2024-02-14T09:57:02;101559.09;;;9.73;100.00
80184;BME280;69682;52.138;5.440;2024-02-14T09:59:29;101556.41;;;9.73;100.00
80184;BME280;69682;52.138;5.440;2024-02-14T10:01:57;101559.09;;;9.73;100.00
80184;BME280;69682;52.138;5.440;2024-02-14T10:04:24;101558.16;;;9.74;100.00
80184;BME280;69682;52.138;5.440;2024-02-14T10:06:52;101559.00;;;9.74;100.00
80184;BME280;69682;52.138;5.440;2024-02-14T10:09:25;101573.94;;;9.77;100.00
80184;BME280;69682;52.138;5.440;2024-02-14T10:11:52;101562.44;;;9.76;100.00
80184;BME280;69682;52.138;5.440;2024-02-14T10:14:20;101571.16;;;9.78;100.00
80184;BME280;69682;52.138;5.440;2024-02-14T10:16:49;101553.38;;;9.79;100.00
80184;BME280;69682;52.138;5.440;2024-02-14T10:19:17;101563.09;;;9.80;100.00
80184;BME280;69682;52.138;5.440;2024-02-14T10:21:55;101569.28;;;9.81;100.00
80184;BME280;69682;52.138;5.440;2024-02-14T10:24:26;101563.00;;;9.82;100.00
80184;BME280;69682;52.138;5.440;2024-02-14T10:26:54;101565.66;;;9.82;100.00
80184;BME280;69682;52.138;5.440;2024-02-14T10:29:20;101569.09;;;9.84;100.00
80184;BME280;69682;52.138;5.440;2024-02-14T10:31:47;101576.94;;;9.85;100.00
80184;BME280;69682;52.138;5.440;2024-02-14T10:34:15;101577.84;;;9.86;100.00
80184;BME280;69682;52.138;5.440;2024-02-14T10:36:45;101581.25;;;9.88;100.00
80184;BME280;69682;52.138;5.440;2024-02-14T10:39:13;101583.81;;;9.89;100.00
80184;BME280;69682;52.138;5.440;2024-02-14T10:41:42;101571.47;;;9.88;100.00
80184;BME280;69682;52.138;5.440;2024-02-14T10:44:09;101582.84;;;9.90;100.00
80184;BME280;69682;52.138;5.440;2024-02-14T10:46:37;101586.28;;;9.92;100.00
80184;BME280;69682;52.138;5.440;2024-02-14T10:49:04;101585.31;;;9.93;100.00
80184;BME280;69682;52.138;5.440;2024-02-14T10:51:33;101577.25;;;9.95;100.00
80184;BME280;69682;52.138;5.440;2024-02-14T10:54:10;101578.00;;;9.97;100.00
80184;BME280;69682;52.138;5.440;2024-02-14T10:56:39;101577.84;;;10.00;100.00
80184;BME280;69682;52.138;5.440;2024-02-14T10:59:08;101580.41;;;10.01;100.00
80184;BME280;69682;52.138;5.440;2024-02-14T11:01:36;101586.50;;;10.04;100.00
80184;BME280;69682;52.138;5.440;2024-02-14T11:04:04;101579.34;;;10.04;100.00
80184;BME280;69682;52.138;5.440;2024-02-14T11:06:31;101582.78;;;10.06;100.00
80184;BME280;69682;52.138;5.440;2024-02-14T11:09:02;101583.63;;;10.07;100.00
80184;BME280;69682;52.138;5.440;2024-02-14T11:11:34;101578.19;;;10.08;100.00
80184;BME280;69682;52.138;5.440;2024-02-14T11:14:02;101574.50;;;10.11;100.00
80184;BME280;69682;52.138;5.440;2024-02-14T11:16:37;101563.75;;;10.12;100.00
80184;BME280;69682;52.138;5.440;2024-02-14T11:21:45;101568.97;;;10.14;100.00
80184;BME280;69682;52.138;5.440;2024-02-14T11:24:14;101565.38;;;10.15;100.00
80184;BME280;69682;52.138;5.440;2024-02-14T11:26:50;101566.13;;;10.17;100.00
80184;BME280;69682;52.138;5.440;2024-02-14T11:29:19;101558.13;;;10.17;100.00
80184;BME280;69682;52.138;5.440;2024-02-14T11:31:57;101551.75;;;10.19;100.00
80184;BME280;69682;52.138;5.440;2024-02-14T11:34:26;101554.41;;;10.19;100.00
80184;BME280;69682;52.138;5.440;2024-02-14T11:36:53;101550.78;;;10.20;100.00
80184;BME280;69682;52.138;5.440;2024-02-14T11:39:20;101564.03;;;10.22;100.00
80184;BME280;69682;52.138;5.440;2024-02-14T11:41:47;101559.56;;;10.22;100.00
80184;BME280;69682;52.138;5.440;2024-02-14T11:44:14;101556.81;;;10.24;100.00
80184;BME280;69682;52.138;5.440;2024-02-14T11:46:40;101550.53;;;10.25;100.00
80184;BME280;69682;52.138;5.440;2024-02-14T11:49:08;101562.88;;;10.26;100.00
80184;BME280;69682;52.138;5.440;2024-02-14T11:51:36;101556.66;;;10.27;100.00
80184;BME280;69682;52.138;5.440;2024-02-14T11:54:06;101556.66;;;10.27;100.00
80184;BME280;69682;52.138;5.440;2024-02-14T11:56:36;101550.34;;;10.28;100.00
80184;BME280;69682;52.138;5.440;2024-02-14T11:59:05;101554.53;;;10.32;100.00
80184;BME280;69682;52.138;5.440;2024-02-14T12:01:34;101548.34;;;10.32;100.00
80184;BME280;69682;52.138;5.440;2024-02-14T12:04:05;101549.13;;;10.34;100.00
80184;BME280;69682;52.138;5.440;2024-02-14T12:06:35;101541.88;;;10.36;100.00
80184;BME280;69682;52.138;5.440;2024-02-14T12:09:03;101542.63;;;10.38;100.00
80184;BME280;69682;52.138;5.440;2024-02-14T12:11:32;101545.19;;;10.39;100.00
80184;BME280;69682;52.138;5.440;2024-02-14T12:14:03;101540.72;;;10.40;100.00
80184;BME280;69682;52.138;5.440;2024-02-14T12:16:31;101541.50;;;10.42;100.00
80184;BME280;69682;52.138;5.440;2024-02-14T12:21:37;101539.56;;;10.44;100.00
80184;BME280;69682;52.138;5.440;2024-02-14T12:24:13;101540.44;;;10.44;100.00
80184;BME280;69682;52.138;5.440;2024-02-14T12:26:41;101542.16;;;10.45;100.00
80184;BME280;69682;52.138;5.440;2024-02-14T12:29:12;101542.91;;;10.48;100.00
80184;BME280;69682;52.138;5.440;2024-02-14T12:31:41;101548.22;;;10.48;100.00
80184;BME280;69682;52.138;5.440;2024-02-14T12:34:11;101548.13;;;10.49;100.00
80184;BME280;69682;52.138;5.440;2024-02-14T12:36:38;101542.91;;;10.48;100.00
80184;BME280;69682;52.138;5.440;2024-02-14T12:39:05;101538.44;;;10.48;100.00
80184;BME280;69682;52.138;5.440;2024-02-14T12:41:33;101547.28;;;10.49;100.00
80184;BME280;69682;52.138;5.440;2024-02-14T12:44:02;101539.28;;;10.49;100.00
80184;BME280;69682;52.138;5.440;2024-02-14T12:46:29;101534.81;;;10.49;100.00
80184;BME280;69682;52.138;5.440;2024-02-14T12:48:56;101544.53;;;10.50;100.00
80184;BME280;69682;52.138;5.440;2024-02-14T12:51:23;101531.09;;;10.52;100.00
80184;BME280;69682;52.138;5.440;2024-02-14T12:53:55;101531.94;;;10.52;100.00
80184;BME280;69682;52.138;5.440;2024-02-14T12:56:22;101538.03;;;10.54;100.00
80184;BME280;69682;52.138;5.440;2024-02-14T12:58:50;101532.69;;;10.54;100.00
80184;BME280;69682;52.138;5.440;2024-02-14T13:01:17;101536.22;;;10.55;100.00